Time;durP1;ratioP1;P1;durP2;ratioP2;P2;SDS_P1;SDS_P2;PMS_P1;PMS_P2;Temp;Humidity;BMP_temperature;BMP_pressure;BME280_temperature;BME280_humidity;BME280_pressure;Samples;Min_cycle;Max_cycle;Signal;HPM_P1;HPM_P2
2023/04/05 00:00:44;;;;;;;14.82;6.70;;;0.30;99.90;;;;;;5114495;27;20114;-64
2023/04/05 00:03:17;;;;;;;10.45;5.80;;;0.20;99.90;;;;;;5108512;27;20043;-64
2023/04/05 00:05:43;;;;;;;11.88;5.72;;;0.10;99.90;;;;;;5107100;27;20046;-63
2023/04/05 00:08:12;;;;;;;13.43;5.85;;;0.10;99.90;;;;;;5106571;27;20068;-64
2023/04/05 00:10:38;;;;;;;13.27;6.32;;;0.00;99.90;;;;;;5128697;27;20093;-64
2023/04/05 00:13:03;;;;;;;12.55;6.32;;;0.00;99.90;;;;;;5111343;27;20035;-64
2023/04/05 00:15:30;;;;;;;16.15;6.15;;;0.00;99.90;;;;;;5107737;27;20129;-64
2023/04/05 00:17:57;;;;;;;12.52;6.03;;;0.00;99.90;;;;;;5122199;27;20035;-64
2023/04/05 00:20:22;;;;;;;12.32;6.75;;;0.00;99.90;;;;;;5104855;27;20398;-64
2023/04/05 00:22:49;;;;;;;12.95;6.25;;;0.00;99.90;;;;;;5122208;27;20039;-64
2023/04/05 00:25:16;;;;;;;15.10;7.18;;;0.10;99.90;;;;;;5107035;27;20050;-64
2023/04/05 00:27:45;;;;;;;14.82;6.97;;;0.10;99.90;;;;;;5127968;27;20042;-64
2023/04/05 00:30:11;;;;;;;16.05;7.78;;;0.10;99.90;;;;;;5102699;27;20046;-64
2023/04/05 00:32:36;;;;;;;14.63;7.30;;;0.10;99.90;;;;;;5109998;27;20031;-64
2023/04/05 00:35:02;;;;;;;14.52;7.55;;;0.10;99.90;;;;;;5107867;27;20043;-64
2023/04/05 00:37:28;;;;;;;15.75;6.63;;;0.20;99.90;;;;;;5127597;27;20031;-64
2023/04/05 00:39:54;;;;;;;14.70;7.07;;;0.20;99.90;;;;;;5124074;27;20585;-64
2023/04/05 00:42:19;;;;;;;18.10;6.88;;;0.20;99.90;;;;;;5102354;27;20051;-63
2023/04/05 00:44:45;;;;;;;13.50;6.35;;;0.20;99.90;;;;;;5121282;27;20039;-64
2023/04/05 00:47:10;;;;;;;13.68;6.60;;;0.20;99.90;;;;;;5123725;27;20374;-64
2023/04/05 00:49:37;;;;;;;13.35;6.85;;;0.20;99.90;;;;;;5104631;27;20046;-64
2023/04/05 00:52:03;;;;;;;18.73;7.53;;;0.20;99.90;;;;;;5119622;27;20039;-64
2023/04/05 00:54:38;;;;;;;18.98;7.07;;;0.20;99.90;;;;;;5100304;27;20371;-64
2023/04/05 00:57:05;;;;;;;14.65;7.00;;;0.20;99.90;;;;;;5108197;27;20043;-63
2023/04/05 00:59:31;;;;;;;17.65;7.00;;;0.20;99.90;;;;;;5121510;27;20127;-63
2023/04/05 01:02:32;;;;;;;14.77;7.38;;;0.20;99.90;;;;;;5124994;27;20066;-64
2023/04/05 01:05:02;;;;;;;15.00;6.55;;;0.10;99.90;;;;;;5095073;27;20047;-64
2023/04/05 01:07:41;;;;;;;15.60;6.78;;;0.20;99.90;;;;;;5123959;27;20042;-64
2023/04/05 01:10:12;;;;;;;13.75;6.47;;;0.20;99.90;;;;;;5126067;27;20043;-64
2023/04/05 01:12:38;;;;;;;13.77;6.60;;;0.20;99.90;;;;;;5104437;27;20081;-64
2023/04/05 01:15:04;;;;;;;11.95;6.13;;;0.10;99.90;;;;;;5104462;27;20083;-64
2023/04/05 01:17:35;;;;;;;12.10;6.20;;;0.10;99.90;;;;;;5128498;27;20160;-64
2023/04/05 01:20:09;;;;;;;15.27;7.70;;;0.00;99.90;;;;;;5106030;27;20095;-64
2023/04/05 01:23:15;;;;;;;13.80;6.97;;;-0.10;99.90;;;;;;5124815;27;20027;-64
2023/04/05 01:25:43;;;;;;;11.30;5.93;;;-0.10;99.90;;;;;;5119916;27;20114;-64
2023/04/05 01:28:15;;;;;;;12.18;5.88;;;-0.20;99.90;;;;;;5105822;27;20154;-64
2023/04/05 01:30:46;;;;;;;13.15;6.45;;;-0.20;99.90;;;;;;5110900;27;20070;-64
2023/04/05 01:33:32;;;;;;;14.15;6.65;;;-0.30;99.90;;;;;;5105544;27;20065;-64
2023/04/05 01:36:07;;;;;;;15.75;6.78;;;-0.30;99.90;;;;;;5104873;27;20380;-64
2023/04/05 01:38:37;;;;;;;14.13;6.30;;;-0.30;99.90;;;;;;5105485;27;20043;-64
2023/04/05 01:41:03;;;;;;;14.07;6.25;;;-0.40;99.90;;;;;;5122047;27;20350;-64
2023/04/05 01:43:28;;;;;;;12.77;6.18;;;-0.40;99.90;;;;;;5127774;27;20042;-64
2023/04/05 01:45:54;;;;;;;15.73;6.30;;;-0.50;99.90;;;;;;5105366;27;20545;-64
2023/04/05 01:48:19;;;;;;;15.98;6.45;;;-0.50;99.90;;;;;;5106169;27;20054;-64
2023/04/05 01:50:45;;;;;;;15.73;6.93;;;-0.60;99.90;;;;;;5122669;27;20043;-64
2023/04/05 01:53:11;;;;;;;14.48;6.78;;;-0.60;99.90;;;;;;5120862;27;20522;-64
2023/04/05 01:55:36;;;;;;;12.05;6.60;;;-0.60;99.90;;;;;;5124757;27;20088;-63
2023/04/05 01:58:02;;;;;;;11.65;6.97;;;-0.70;99.90;;;;;;5104149;27;20031;-63
2023/04/05 02:00:27;;;;;;;15.68;7.22;;;-0.70;99.90;;;;;;5101247;27;20038;-63
2023/04/05 02:02:53;;;;;;;17.20;7.95;;;-0.70;99.90;;;;;;5102162;27;20035;-64
2023/04/05 02:05:18;;;;;;;16.90;6.68;;;-0.70;99.90;;;;;;5101812;27;20536;-64
2023/04/05 02:07:44;;;;;;;15.65;6.57;;;-0.70;99.90;;;;;;5105504;27;20489;-64
2023/04/05 02:10:09;;;;;;;13.10;6.75;;;-0.70;99.90;;;;;;5105663;27;20047;-64
2023/04/05 02:12:35;;;;;;;13.13;6.40;;;-0.80;99.90;;;;;;5122097;27;20111;-64
2023/04/05 02:15:01;;;;;;;15.23;6.78;;;-0.80;99.90;;;;;;5122082;27;20066;-64
2023/04/05 02:17:32;;;;;;;11.88;6.40;;;-0.80;99.90;;;;;;5120691;27;20049;-64
2023/04/05 02:20:07;;;;;;;13.07;6.32;;;-0.80;99.90;;;;;;5121618;27;20051;-64
2023/04/05 02:22:33;;;;;;;14.85;7.65;;;-0.90;99.90;;;;;;5101844;27;20550;-64
2023/04/05 02:25:00;;;;;;;14.25;6.10;;;-0.90;99.90;;;;;;5126670;27;20038;-64
2023/04/05 02:27:25;;;;;;;13.63;7.00;;;-0.90;99.90;;;;;;5087389;27;20066;-64
2023/04/05 02:29:51;;;;;;;13.80;6.47;;;-1.00;99.90;;;;;;5105061;27;20047;-64
2023/04/05 02:32:17;;;;;;;15.35;6.53;;;-1.00;99.90;;;;;;5117743;27;20126;-64
2023/04/05 02:34:42;;;;;;;12.55;6.22;;;-1.00;99.90;;;;;;5099626;27;20557;-64
2023/04/05 02:37:09;;;;;;;11.63;5.43;;;-1.10;99.90;;;;;;5104041;27;20039;-64
2023/04/05 02:39:34;;;;;;;16.02;7.07;;;-1.10;99.90;;;;;;5103958;27;20067;-64
2023/04/05 02:42:00;;;;;;;13.02;7.00;;;-1.10;99.90;;;;;;5106329;27;20074;-64
2023/04/05 02:44:25;;;;;;;11.98;6.05;;;-1.10;99.90;;;;;;5103104;27;20041;-64
2023/04/05 02:46:51;;;;;;;14.43;6.45;;;-1.10;99.90;;;;;;5105478;27;20126;-64
2023/04/05 02:49:19;;;;;;;13.25;6.43;;;-1.10;99.90;;;;;;5116649;27;20477;-64
2023/04/05 02:51:45;;;;;;;10.27;5.88;;;-1.10;99.90;;;;;;5103954;27;20039;-64
2023/04/05 02:54:10;;;;;;;15.05;7.22;;;-1.10;99.90;;;;;;5120076;27;20092;-64
2023/04/05 02:56:36;;;;;;;11.93;6.38;;;-1.10;99.90;;;;;;5121406;27;20048;-64
2023/04/05 02:59:02;;;;;;;16.17;7.30;;;-1.10;99.90;;;;;;5102182;27;20039;-64
2023/04/05 03:01:28;;;;;;;14.30;6.63;;;-1.10;99.90;;;;;;5120358;27;20066;-64
2023/04/05 03:03:53;;;;;;;14.07;7.05;;;-1.10;99.90;;;;;;5100844;27;20067;-64
2023/04/05 03:06:19;;;;;;;17.33;7.22;;;-1.10;99.90;;;;;;5120086;27;20035;-64
2023/04/05 03:08:47;;;;;;;13.10;6.85;;;-1.10;99.90;;;;;;5106157;27;20051;-64
2023/04/05 03:11:14;;;;;;;11.07;5.43;;;-1.10;99.90;;;;;;5108676;28;20035;-64
2023/04/05 03:13:40;;;;;;;13.63;6.47;;;-1.10;99.90;;;;;;5101243;28;20062;-64
2023/04/05 03:16:06;;;;;;;11.15;6.15;;;-1.20;99.90;;;;;;5124592;27;20466;-64
2023/04/05 03:18:31;;;;;;;14.57;6.78;;;-1.20;99.90;;;;;;5115435;28;20031;-64
2023/04/05 03:20:57;;;;;;;15.77;6.28;;;-1.20;99.90;;;;;;5103171;27;20909;-64
2023/04/05 03:23:27;;;;;;;12.98;6.75;;;-1.20;99.90;;;;;;5097572;28;20039;-64
2023/04/05 03:26:00;;;;;;;14.75;6.72;;;-1.20;99.90;;;;;;5099024;28;20374;-64
2023/04/05 03:28:26;;;;;;;13.77;6.80;;;-1.20;99.90;;;;;;5117388;27;20131;-64
2023/04/05 03:30:52;;;;;;;15.05;7.68;;;-1.20;99.90;;;;;;5101050;28;20402;-64
2023/04/05 03:33:18;;;;;;;16.13;7.50;;;-1.20;99.90;;;;;;5120208;27;20027;-64
2023/04/05 03:35:51;;;;;;;16.08;7.35;;;-1.20;99.90;;;;;;5121765;28;20031;-64
2023/04/05 03:38:16;;;;;;;14.18;7.20;;;-1.10;99.90;;;;;;5122165;27;20031;-64
2023/04/05 03:40:42;;;;;;;16.85;7.30;;;-1.10;99.90;;;;;;5104292;28;20035;-64
2023/04/05 03:43:08;;;;;;;14.50;6.95;;;-1.10;99.90;;;;;;5103569;28;20539;-64
2023/04/05 03:45:33;;;;;;;15.63;6.80;;;-1.10;99.90;;;;;;5125311;27;20054;-64
2023/04/05 03:48:01;;;;;;;14.60;6.95;;;-1.10;99.90;;;;;;5114750;28;20038;-64
2023/04/05 03:50:27;;;;;;;12.63;6.72;;;-1.20;99.90;;;;;;5125059;27;20394;-64
2023/04/05 03:52:53;;;;;;;9.70;5.57;;;-1.20;99.90;;;;;;5108149;27;20035;-64
2023/04/05 03:55:18;;;;;;;9.63;4.68;;;-1.10;99.90;;;;;;5105521;28;20042;-63
2023/04/05 03:57:44;;;;;;;11.43;5.40;;;-1.20;99.90;;;;;;5119436;27;20035;-63
2023/04/05 04:00:13;;;;;;;13.43;7.07;;;-1.20;99.90;;;;;;5100570;27;20094;-63
2023/04/05 04:02:46;;;;;;;16.73;7.03;;;-1.20;99.90;;;;;;5120561;27;20038;-63
2023/04/05 04:05:13;;;;;;;14.52;7.00;;;-1.20;99.90;;;;;;5124866;27;20035;-63
2023/04/05 04:07:40;;;;;;;11.70;6.45;;;-1.20;99.90;;;;;;5105830;28;20031;-63
2023/04/05 04:10:07;;;;;;;12.15;6.22;;;-1.30;99.90;;;;;;5100294;27;20078;-64
2023/04/05 04:12:33;;;;;;;9.98;5.70;;;-1.30;99.90;;;;;;5102514;27;20104;-64
2023/04/05 04:14:58;;;;;;;10.77;5.65;;;-1.40;99.90;;;;;;5110642;27;20046;-64
2023/04/05 04:17:28;;;;;;;13.13;6.43;;;-1.40;99.90;;;;;;5103047;27;20047;-64
2023/04/05 04:19:55;;;;;;;18.13;8.13;;;-1.50;99.90;;;;;;5095156;27;20050;-64
2023/04/05 04:22:22;;;;;;;17.60;7.68;;;-1.40;99.90;;;;;;5107066;27;20043;-64
2023/04/05 04:24:48;;;;;;;21.77;9.27;;;-1.40;99.90;;;;;;5129763;27;20419;-64
2023/04/05 04:27:19;;;;;;;17.48;8.38;;;-1.40;99.90;;;;;;5121832;27;20035;-64
2023/04/05 04:29:46;;;;;;;14.65;7.38;;;-1.40;99.90;;;;;;5104268;27;20043;-64
2023/04/05 04:32:15;;;;;;;17.73;8.02;;;-1.40;99.90;;;;;;5103725;27;20050;-64
2023/04/05 04:34:44;;;;;;;15.90;7.57;;;-1.50;99.90;;;;;;5107366;27;20071;-64
2023/04/05 04:37:17;;;;;;;17.00;7.18;;;-1.50;99.90;;;;;;5105444;27;20142;-64
2023/04/05 04:39:46;;;;;;;13.75;6.75;;;-1.60;99.90;;;;;;5121090;27;20039;-64
2023/04/05 04:42:13;;;;;;;16.73;7.20;;;-1.60;99.90;;;;;;5103369;27;20049;-64
2023/04/05 04:44:41;;;;;;;14.75;6.72;;;-1.60;99.90;;;;;;5105574;27;21709;-64
2023/04/05 04:47:12;;;;;;;15.98;7.35;;;-1.60;99.90;;;;;;5104458;27;20070;-64
2023/04/05 04:49:41;;;;;;;16.40;7.28;;;-1.70;99.90;;;;;;5103155;27;20047;-64
2023/04/05 04:52:06;;;;;;;17.75;7.60;;;-1.70;99.90;;;;;;5104831;27;20100;-64
2023/04/05 04:54:33;;;;;;;19.65;8.13;;;-1.80;99.90;;;;;;5103486;27;20056;-64
2023/04/05 04:57:00;;;;;;;18.95;8.73;;;-1.80;99.90;;;;;;5126948;27;20031;-64
2023/04/05 04:59:27;;;;;;;18.02;7.95;;;-1.70;99.90;;;;;;5108392;27;20039;-64
2023/04/05 05:01:52;;;;;;;17.98;7.63;;;-1.80;99.90;;;;;;5107462;27;20501;-64
2023/04/05 05:04:18;;;;;;;18.17;8.50;;;-1.80;99.90;;;;;;5126667;27;20065;-64
2023/04/05 05:06:43;;;;;;;16.42;7.82;;;-1.80;99.90;;;;;;5107765;27;20039;-64
2023/04/05 05:09:09;;;;;;;19.92;7.70;;;-1.80;99.90;;;;;;5103303;27;20111;-64
2023/04/05 05:11:35;;;;;;;12.43;7.03;;;-1.70;99.90;;;;;;5123573;27;20063;-64
2023/04/05 05:14:00;;;;;;;19.02;7.82;;;-1.80;99.90;;;;;;5103315;27;20039;-64
2023/04/05 05:16:26;;;;;;;17.23;8.20;;;-1.80;99.90;;;;;;5118201;27;20676;-64
2023/04/05 05:18:53;;;;;;;16.73;8.35;;;-1.90;99.90;;;;;;5121980;27;20039;-64
2023/04/05 05:21:18;;;;;;;16.08;7.53;;;-1.90;99.90;;;;;;5102199;27;20035;-64
2023/04/05 05:23:45;;;;;;;16.52;7.22;;;-1.90;99.90;;;;;;5104437;27;20039;-64
2023/04/05 05:26:12;;;;;;;16.38;6.63;;;-1.90;99.90;;;;;;5108008;27;20058;-64
2023/04/05 05:28:38;;;;;;;15.30;6.93;;;-1.90;99.90;;;;;;5107686;27;20046;-64
2023/04/05 05:31:04;;;;;;;15.80;7.57;;;-1.90;99.90;;;;;;5108046;27;20039;-64
2023/04/05 05:33:30;;;;;;;19.13;8.88;;;-1.90;99.90;;;;;;5103685;27;20039;-64
2023/04/05 05:35:56;;;;;;;18.05;8.55;;;-1.80;99.90;;;;;;5108038;27;20042;-64
2023/04/05 05:38:22;;;;;;;15.40;8.43;;;-1.80;99.90;;;;;;5105837;27;20099;-64
2023/04/05 05:40:47;;;;;;;18.10;8.48;;;-1.70;99.90;;;;;;5108367;27;20067;-64
2023/04/05 05:43:14;;;;;;;19.67;8.57;;;-1.60;99.90;;;;;;5126899;27;20078;-64
2023/04/05 05:45:40;;;;;;;17.60;8.45;;;-1.60;99.90;;;;;;5099800;27;20152;-64
2023/04/05 05:48:05;;;;;;;19.90;9.18;;;-1.50;99.90;;;;;;5118016;27;20046;-64
2023/04/05 05:50:31;;;;;;;17.92;8.52;;;-1.50;99.90;;;;;;5105427;27;20035;-64
2023/04/05 05:52:58;;;;;;;19.48;8.57;;;-1.50;99.90;;;;;;5126352;27;20039;-64
2023/04/05 05:55:25;;;;;;;21.85;10.18;;;-1.50;99.90;;;;;;5124619;27;20035;-64
2023/04/05 05:57:51;;;;;;;20.85;10.40;;;-1.40;99.90;;;;;;5126626;27;20084;-64
2023/04/05 06:00:18;;;;;;;21.10;9.98;;;-1.30;99.90;;;;;;5124982;27;20039;-64
2023/04/05 06:02:45;;;;;;;26.75;12.10;;;-1.20;99.90;;;;;;5106775;27;20112;-64
2023/04/05 06:05:12;;;;;;;24.58;11.43;;;-1.10;99.90;;;;;;5108497;27;20050;-64
2023/04/05 06:07:37;;;;;;;21.02;10.70;;;-1.00;99.90;;;;;;5106390;27;20031;-63
2023/04/05 06:10:05;;;;;;;27.52;12.20;;;-0.90;99.90;;;;;;5127978;27;20088;-63
2023/04/05 06:12:30;;;;;;;23.27;11.18;;;-0.80;99.90;;;;;;5134229;27;20632;-64
2023/04/05 06:14:56;;;;;;;22.58;11.70;;;-0.70;99.90;;;;;;5113339;27;20039;-64
2023/04/05 06:17:21;;;;;;;25.02;11.70;;;-0.70;99.90;;;;;;5131180;27;20035;-64
2023/04/05 06:19:47;;;;;;;23.17;11.40;;;-0.60;99.90;;;;;;5108180;27;20047;-64
2023/04/05 06:22:12;;;;;;;22.60;11.85;;;-0.50;99.90;;;;;;5106133;27;20130;-64
2023/04/05 06:24:38;;;;;;;24.40;10.88;;;-0.40;99.90;;;;;;5122594;27;20035;-64
2023/04/05 06:27:03;;;;;;;23.45;12.13;;;-0.30;99.90;;;;;;5115635;27;20031;-64
2023/04/05 06:29:30;;;;;;;26.67;12.68;;;-0.20;99.90;;;;;;5120515;27;20039;-64
2023/04/05 06:31:55;;;;;;;25.17;12.90;;;-0.20;99.90;;;;;;5125015;27;20111;-64
2023/04/05 06:34:22;;;;;;;26.08;13.18;;;0.00;99.90;;;;;;5123300;27;20031;-64
2023/04/05 06:36:47;;;;;;;27.40;12.85;;;0.10;99.90;;;;;;5108250;27;20031;-64
2023/04/05 06:39:13;;;;;;;27.50;13.52;;;0.20;99.90;;;;;;5105419;27;20043;-64
2023/04/05 06:41:39;;;;;;;25.35;13.15;;;0.30;99.90;;;;;;5109003;27;20031;-64
2023/04/05 06:44:05;;;;;;;32.72;14.18;;;0.40;99.90;;;;;;5111020;27;20089;-64
2023/04/05 06:46:31;;;;;;;25.60;13.25;;;0.50;99.90;;;;;;5127215;27;20043;-64
2023/04/05 06:48:57;;;;;;;25.48;13.50;;;0.60;99.90;;;;;;5109204;27;20092;-64
2023/04/05 06:51:24;;;;;;;27.75;14.10;;;0.70;99.90;;;;;;5105898;27;20032;-64
2023/04/05 06:53:49;;;;;;;26.23;14.25;;;0.70;99.90;;;;;;5121255;27;20042;-65
2023/04/05 06:56:15;;;;;;;24.60;13.55;;;0.90;99.90;;;;;;5103004;27;20042;-64
2023/04/05 06:58:41;;;;;;;25.10;14.07;;;1.00;99.90;;;;;;5103275;27;20042;-65
2023/04/05 07:01:06;;;;;;;27.33;14.07;;;1.10;99.90;;;;;;5101784;27;20481;-64
2023/04/05 07:03:32;;;;;;;26.50;14.85;;;1.20;99.90;;;;;;5112577;27;20031;-64
2023/04/05 07:05:59;;;;;;;27.40;13.80;;;1.30;99.90;;;;;;5125555;27;20032;-64
2023/04/05 07:08:26;;;;;;;26.23;14.88;;;1.50;99.90;;;;;;5112702;28;20035;-65
2023/04/05 07:10:52;;;;;;;24.70;14.57;;;1.60;99.90;;;;;;5112763;27;20031;-64
2023/04/05 07:13:20;;;;;;;27.52;14.80;;;1.70;99.90;;;;;;5110864;28;20035;-61
2023/04/05 07:15:45;;;;;;;24.60;14.63;;;1.80;99.90;;;;;;5125576;27;20126;-61
2023/04/05 07:18:11;;;;;;;25.63;14.75;;;2.00;99.90;;;;;;5126911;27;20122;-65
2023/04/05 07:20:37;;;;;;;24.67;14.27;;;2.10;99.90;;;;;;5110882;28;20433;-65
2023/04/05 07:23:04;;;;;;;23.73;14.18;;;2.20;99.90;;;;;;5127144;28;20083;-65
2023/04/05 07:25:30;;;;;;;28.08;14.73;;;2.30;99.90;;;;;;5104696;28;20043;-65
2023/04/05 07:27:56;;;;;;;28.67;14.23;;;2.40;99.90;;;;;;5126296;27;20043;-65
2023/04/05 07:30:22;;;;;;;25.55;14.30;;;2.50;99.90;;;;;;5111347;28;20051;-65
2023/04/05 07:32:47;;;;;;;22.23;13.15;;;2.70;99.90;;;;;;5129286;28;20042;-65
2023/04/05 07:35:15;;;;;;;25.88;14.30;;;2.80;99.90;;;;;;5109689;28;20047;-65
2023/04/05 07:37:41;;;;;;;23.88;14.15;;;2.90;99.90;;;;;;5126491;28;20080;-65
2023/04/05 07:40:07;;;;;;;23.67;14.52;;;3.00;99.90;;;;;;5106511;27;20047;-65
2023/04/05 07:42:33;;;;;;;24.23;14.63;;;3.20;99.90;;;;;;5129639;28;20172;-65
2023/04/05 07:44:58;;;;;;;24.30;14.07;;;3.30;99.90;;;;;;5101282;27;20526;-65
2023/04/05 07:47:24;;;;;;;24.67;14.05;;;3.50;99.90;;;;;;5135337;27;20031;-65
2023/04/05 07:49:49;;;;;;;22.25;13.32;;;3.60;99.90;;;;;;5126809;27;20481;-65
2023/04/05 07:52:15;;;;;;;21.63;14.13;;;3.70;99.90;;;;;;5113861;28;20032;-65
2023/04/05 07:54:42;;;;;;;27.63;14.00;;;3.80;99.90;;;;;;5105688;27;20055;-65
2023/04/05 07:57:09;;;;;;;22.77;13.77;;;3.90;99.90;;;;;;5107320;27;20055;-65
2023/04/05 07:59:34;;;;;;;23.17;13.70;;;4.10;99.90;;;;;;5124933;27;20478;-65
2023/04/05 08:02:00;;;;;;;22.13;13.35;;;4.10;99.90;;;;;;5121430;27;20043;-65
2023/04/05 08:04:26;;;;;;;23.73;13.20;;;4.30;99.90;;;;;;5091741;27;20038;-64
2023/04/05 08:06:51;;;;;;;20.90;12.15;;;4.40;99.90;;;;;;5108231;27;20046;-65
2023/04/05 08:09:27;;;;;;;21.98;12.68;;;4.40;99.90;;;;;;5114140;27;20133;-65
2023/04/05 08:12:01;;;;;;;19.40;12.55;;;4.50;99.90;;;;;;5119970;27;20039;-65
2023/04/05 08:14:27;;;;;;;20.67;12.95;;;4.60;99.90;;;;;;5133127;27;20126;-65
2023/04/05 08:16:52;;;;;;;24.15;12.95;;;4.70;99.90;;;;;;5110535;27;20171;-65
2023/04/05 08:19:18;;;;;;;22.35;12.82;;;4.80;99.90;;;;;;5128174;27;20039;-64
2023/04/05 08:21:43;;;;;;;20.70;13.15;;;4.90;99.90;;;;;;5104021;27;20580;-65
2023/04/05 08:24:09;;;;;;;20.38;12.30;;;5.00;99.90;;;;;;5121532;27;20996;-65
2023/04/05 08:26:34;;;;;;;18.00;12.30;;;5.10;99.90;;;;;;5123332;27;20090;-64
2023/04/05 08:29:00;;;;;;;21.08;11.32;;;5.20;99.90;;;;;;5115074;27;20072;-65
2023/04/05 08:31:26;;;;;;;17.63;11.13;;;5.30;99.90;;;;;;5117133;27;20088;-65
2023/04/05 08:33:51;;;;;;;19.58;11.05;;;5.40;99.90;;;;;;5105287;27;20047;-64
2023/04/05 08:36:17;;;;;;;17.15;10.85;;;5.50;99.90;;;;;;5126598;27;20027;-65
2023/04/05 08:38:43;;;;;;;16.73;9.80;;;5.60;99.90;;;;;;5132427;27;20047;-64
2023/04/05 08:41:21;;;;;;;15.07;9.38;;;5.70;99.90;;;;;;5132583;27;20107;-65
2023/04/05 08:44:04;;;;;;;14.00;9.25;;;5.80;99.90;;;;;;5098773;27;20123;-64
2023/04/05 08:46:33;;;;;;;;;;;5.90;99.90;;;;;;5127002;27;20039;-65
2023/04/05 08:49:03;;;;;;;16.33;9.68;;;6.00;99.90;;;;;;5113153;27;20218;-65
2023/04/05 08:51:30;;;;;;;12.57;8.88;;;6.10;99.90;;;;;;5109549;27;20046;-65
2023/04/05 08:53:55;;;;;;;14.82;8.82;;;6.20;99.90;;;;;;5112618;27;20043;-65
2023/04/05 08:56:25;;;;;;;14.90;9.68;;;6.30;99.90;;;;;;5130321;27;20485;-65
2023/04/05 08:59:09;;;;;;;14.60;8.98;;;6.40;99.90;;;;;;5114089;27;20039;-65
2023/04/05 09:01:43;;;;;;;13.07;8.00;;;6.50;99.90;;;;;;5110465;27;20035;-64
2023/04/05 09:04:19;;;;;;;14.57;8.30;;;6.60;99.90;;;;;;5114529;27;20039;-65
2023/04/05 09:06:46;;;;;;;13.32;8.18;;;6.70;99.90;;;;;;5130267;27;20035;-65
2023/04/05 09:09:14;;;;;;;12.13;7.90;;;6.80;99.90;;;;;;5129949;27;20062;-64
2023/04/05 09:11:39;;;;;;;14.65;7.80;;;6.80;99.90;;;;;;5100545;28;20055;-65
2023/04/05 09:14:06;;;;;;;12.82;8.68;;;6.90;99.90;;;;;;5103442;27;20039;-65
2023/04/05 09:16:39;;;;;;;14.05;8.80;;;7.00;99.90;;;;;;5127078;27;20532;-65
2023/04/05 09:19:06;;;;;;;13.10;8.45;;;7.00;99.90;;;;;;5112137;27;20051;-65
2023/04/05 09:22:01;;;;;;;12.02;7.78;;;7.10;99.90;;;;;;5111489;27;20051;-65
2023/04/05 09:24:44;;;;;;;12.30;7.82;;;7.30;99.90;;;;;;5101199;27;20043;-64
2023/04/05 09:27:10;;;;;;;12.23;8.20;;;7.40;99.90;;;;;;5109875;27;20093;-66
2023/04/05 09:29:41;;;;;;;12.35;7.57;;;7.40;99.90;;;;;;5127459;27;20027;-65
2023/04/05 09:32:12;;;;;;;10.77;6.82;;;7.50;99.90;;;;;;5116002;27;20043;-65
2023/04/05 09:34:39;;;;;;;11.40;6.55;;;7.60;99.90;;;;;;5123188;27;20050;-65
2023/04/05 09:37:16;;;;;;;10.63;6.07;;;7.70;99.90;;;;;;5120381;27;20024;-65
2023/04/05 09:39:43;;;;;;;9.43;6.00;;;7.90;99.90;;;;;;5101922;27;20048;-65
2023/04/05 09:42:14;;;;;;;15.23;6.88;;;8.00;99.90;;;;;;5130899;27;20118;-65
2023/04/05 09:45:13;;;;;;;12.13;6.72;;;8.10;99.90;;;;;;5101311;27;20038;-65
2023/04/05 09:47:40;;;;;;;8.93;6.10;;;8.20;99.90;;;;;;5064917;27;20046;-64
2023/04/05 09:50:14;;;;;;;11.80;6.10;;;8.20;99.90;;;;;;5117771;27;20043;-65
2023/04/05 09:52:40;;;;;;;8.55;6.05;;;8.40;99.90;;;;;;5107020;27;20047;-64
2023/04/05 09:55:06;;;;;;;8.80;5.55;;;8.40;99.90;;;;;;5106508;27;20551;-64
2023/04/05 09:57:34;;;;;;;13.77;6.30;;;8.50;99.90;;;;;;5131490;27;20084;-64
2023/04/05 09:59:59;;;;;;;9.38;6.18;;;8.50;99.90;;;;;;5104727;27;20071;-65
2023/04/05 10:02:36;;;;;;;11.88;6.68;;;8.60;99.90;;;;;;5133374;27;20062;-64
2023/04/05 10:05:12;;;;;;;12.15;7.82;;;8.80;99.90;;;;;;5112113;27;20088;-65
2023/04/05 10:07:41;;;;;;;11.45;6.90;;;8.90;99.90;;;;;;5132573;27;20134;-64
2023/04/05 10:10:09;;;;;;;12.32;7.20;;;8.90;99.90;;;;;;5114440;27;20035;-65
2023/04/05 10:12:37;;;;;;;11.00;6.78;;;8.90;99.90;;;;;;5112330;27;20138;-65
2023/04/05 10:15:04;;;;;;;14.05;7.10;;;9.00;99.90;;;;;;5098921;28;20130;-65
2023/04/05 10:18:11;;;;;;;10.93;7.10;;;9.10;99.90;;;;;;5109092;28;20096;-65
2023/04/05 10:20:42;;;;;;;10.95;6.30;;;9.20;99.90;;;;;;5090947;28;20390;-65
2023/04/05 10:23:12;;;;;;;12.25;6.47;;;9.30;99.90;;;;;;5115295;27;20069;-65
2023/04/05 10:25:55;;;;;;;9.27;6.25;;;9.40;99.90;;;;;;5110339;27;20404;-65
2023/04/05 10:28:33;;;;;;;9.88;6.63;;;9.30;99.90;;;;;;5114397;27;20043;-65
2023/04/05 10:31:27;;;;;;;8.60;6.15;;;9.50;99.90;;;;;;5130545;27;20474;-66
2023/04/05 10:34:39;;;;;;;10.23;6.45;;;9.60;99.90;;;;;;5097235;27;20042;-65
2023/04/05 10:37:06;;;;;;;10.57;6.65;;;9.70;99.90;;;;;;5097664;27;20054;-65
2023/04/05 10:39:44;;;;;;;9.93;6.80;;;9.80;99.90;;;;;;5121549;27;20567;-65
2023/04/05 10:42:20;;;;;;;10.57;6.50;;;9.90;99.90;;;;;;5115773;27;20134;-65
2023/04/05 10:44:58;;;;;;;11.93;7.13;;;10.00;99.90;;;;;;5123215;27;20042;-65
2023/04/05 10:47:27;;;;;;;12.77;7.03;;;10.00;99.90;;;;;;5116748;27;20486;-65
2023/04/05 10:49:56;;;;;;;11.60;6.43;;;10.00;99.90;;;;;;5113700;27;20456;-65
2023/04/05 10:52:22;;;;;;;9.10;6.32;;;10.00;99.90;;;;;;5092942;28;20058;-65
2023/04/05 10:54:48;;;;;;;8.95;5.93;;;9.90;99.90;;;;;;5121135;27;20039;-66
2023/04/05 10:57:16;;;;;;;10.32;6.38;;;9.90;99.90;;;;;;5115124;27;20039;-65
2023/04/05 10:59:44;;;;;;;9.15;6.13;;;9.90;99.90;;;;;;5102834;27;20046;-65
2023/04/05 11:02:10;;;;;;;10.43;6.15;;;9.90;99.90;;;;;;5109156;27;20035;-65
2023/04/05 11:04:37;;;;;;;8.70;6.13;;;9.90;99.60;;;;;;5100704;27;20056;-65
2023/04/05 11:07:13;;;;;;;8.60;6.45;;;9.90;99.90;;;;;;5095107;28;20048;-65
2023/04/05 11:09:51;;;;;;;12.27;6.50;;;10.00;99.90;;;;;;5102420;28;20043;-65
2023/04/05 11:12:17;;;;;;;10.80;6.40;;;10.20;99.90;;;;;;5095386;27;20039;-63
2023/04/05 11:14:43;;;;;;;11.20;6.47;;;10.20;99.90;;;;;;5129501;27;20430;-63
2023/04/05 11:17:26;;;;;;;8.88;6.07;;;10.30;98.30;;;;;;5131026;27;20046;-63
2023/04/05 11:20:05;;;;;;;10.02;6.50;;;10.20;99.80;;;;;;5120839;27;20413;-63
2023/04/05 11:22:30;;;;;;;10.75;6.38;;;10.30;99.90;;;;;;5111227;28;20386;-63
2023/04/05 11:25:01;;;;;;;10.80;6.25;;;10.40;99.90;;;;;;5124295;27;20023;-63
2023/04/05 11:27:39;;;;;;;10.20;6.30;;;10.40;99.90;;;;;;5110294;28;20512;-63
2023/04/05 11:30:06;;;;;;;9.82;6.57;;;10.40;99.90;;;;;;5101630;28;20051;-63
2023/04/05 11:32:42;;;;;;;12.27;6.97;;;10.40;99.00;;;;;;5125654;28;20405;-63
2023/04/05 11:35:21;;;;;;;12.27;6.43;;;10.40;99.90;;;;;;5114122;28;20536;-63
2023/04/05 11:37:59;;;;;;;9.20;6.40;;;10.60;99.90;;;;;;5116659;27;20568;-63
2023/04/05 11:40:32;;;;;;;9.60;6.05;;;10.70;99.90;;;;;;5103358;27;20043;-63
2023/04/05 11:43:09;;;;;;;9.68;6.15;;;10.80;96.60;;;;;;5123248;28;20045;-64
2023/04/05 11:45:36;;;;;;;11.32;6.10;;;10.90;99.90;;;;;;5121836;27;20036;-63
2023/04/05 11:48:07;;;;;;;11.30;6.38;;;10.90;95.10;;;;;;5112658;28;20058;-63
2023/04/05 11:50:35;;;;;;;6.97;5.50;;;10.90;99.90;;;;;;5122014;27;20031;-64
2023/04/05 11:53:17;;;;;;;20.45;6.13;;;10.90;94.70;;;;;;5125482;28;20039;-64
2023/04/05 11:55:49;;;;;;;9.40;6.18;;;10.70;93.00;;;;;;5118735;27;20046;-63
2023/04/05 11:58:16;;;;;;;11.73;6.53;;;10.60;94.30;;;;;;5102328;28;20093;-63
2023/04/05 12:00:43;;;;;;;9.32;6.57;;;10.60;97.70;;;;;;5109155;28;20455;-64
2023/04/05 12:03:13;;;;;;;12.48;6.93;;;10.50;98.30;;;;;;5092975;28;20073;-63
2023/04/05 12:05:52;;;;;;;9.55;6.38;;;10.50;97.40;;;;;;5120771;27;20031;-63
2023/04/05 12:08:19;;;;;;;10.88;6.88;;;10.50;96.80;;;;;;5125141;27;20031;-63
2023/04/05 12:11:01;;;;;;;9.10;6.28;;;10.50;97.00;;;;;;5105581;28;20122;-63
2023/04/05 12:13:32;;;;;;;8.85;6.80;;;10.60;97.50;;;;;;5105862;28;20059;-64
2023/04/05 12:16:05;;;;;;;10.98;6.40;;;10.60;92.70;;;;;;5101800;28;20039;-63
2023/04/05 12:18:34;;;;;;;10.75;7.03;;;10.60;96.50;;;;;;5118265;28;20052;-63
2023/04/05 12:21:02;;;;;;;10.45;6.95;;;10.70;98.10;;;;;;5118182;27;20035;-63
2023/04/05 12:23:27;;;;;;;10.02;6.68;;;10.90;98.40;;;;;;5098148;28;20058;-63
2023/04/05 12:25:55;;;;;;;11.32;6.55;;;11.00;95.30;;;;;;5117394;27;20474;-64
2023/04/05 12:28:21;;;;;;;10.68;6.65;;;10.90;93.20;;;;;;5103712;28;20054;-63
2023/04/05 12:30:48;;;;;;;9.20;6.63;;;11.10;96.40;;;;;;5124029;27;20474;-64
2023/04/05 12:33:14;;;;;;;10.38;6.82;;;11.20;97.60;;;;;;5107328;27;20066;-63
2023/04/05 12:35:40;;;;;;;10.25;7.00;;;11.20;97.10;;;;;;5105694;27;20035;-63
2023/04/05 12:38:06;;;;;;;10.25;7.03;;;11.30;97.00;;;;;;5108904;27;20083;-63
2023/04/05 12:40:36;;;;;;;10.60;6.38;;;11.20;93.90;;;;;;5123773;27;20039;-63
2023/04/05 12:43:07;;;;;;;12.95;6.57;;;11.30;94.40;;;;;;5114326;27;20046;-63
2023/04/05 12:45:38;;;;;;;9.55;7.13;;;11.40;96.80;;;;;;5116094;27;20131;-64
2023/04/05 12:48:21;;;;;;;10.83;6.40;;;11.40;88.90;;;;;;5120093;27;20035;-63